Hanford, CA

9:29 PM PDT on October 22, 2014 (GMT -0700)
Hanford Municipal | Change Station
CLOSE
Current Station
Airport
Location: Hanford,
Elevation: 243 ft
Nearby Weather Stations

Elev 243 ft 36.32 °N, 119.63 °W | Updated 36 minutes ago

Clear
Clear
60 °F
Feels Like 60 °F
N
0
Wind Variable Wind from North

Today
High -- | Low -- °F
--% Chance of Precip.
Yesterday
High -- | Low -- °F
Precip. -- in
7:12 AM 6:13 PM
Waning Crescent, 1% visible
Pressure 30.05 in
Visibility 9.0 miles
Clouds Clear
Dew Point 46 °F
Humidity 60%
Rainfall 0.00 in
Snow Depth Not available.
UV 0 out of 12
Pollen 2.70 out of 12
Air Quality Not available.
Flu Activity Sporadic
METAR KHJO 230353Z AUTO 00000KT 9SM CLR 16/08 A3004 RMK AO2 SLP174 T01560078

More Conditions Fewer Conditions

Pressure 30.05 in
Visibility 9.0 miles
Clouds Clear
Dew Point 46 °F
Humidity 60%
Rainfall 0.00 in
Snow Depth Not available.
UV 0 out of 12
Pollen 2.70 out of 12
Air Quality Not available.
Flu Activity Sporadic
METAR KHJO 230353Z AUTO 00000KT 9SM CLR 16/08 A3004 RMK AO2 SLP174 T01560078

More Conditions Fewer Conditions

10-Day Weather Forecast

Almanac

Astronomy

Oct. 22, 2014 Rise Set
Actual Time 7:12 AM PDT 6:13 PM PDT
Civil Twilight 6:45 AM PDT 6:39 PM PDT
Nautical Twilight 6:15 AM PDT 7:09 PM PDT
Astronomical Twilight 5:45 AM PDT 7:39 PM PDT
Moon 6:00 AM PDT (10/22) 5:41 PM PDT (10/22)
Length of Visible Light 11h 53m
Length of Day
11h 01m
Tomorrow will be 2m 8s shorter.
Waning Crescent, 1% of the Moon is Illuminated
Oct 23
Waning Crescent
Oct 23
New
Oct 30
First Quarter
Nov 6
Full
Nov 14
Last Quarter

Yesterday's Extremes

State Highs State Lows

Community

WunderPhotos

Upload Photos

1,764,150 photos uploaded!

Nearby

Air Quality

  Air Quality AQ Index Pollutant
Wednesday Moderate
PM10
Thursday Moderate
PM10
Friday Moderate
PM10
Saturday Moderate
PM10
Sunday Moderate
PM10
Monday Moderate
PM10

Snow Depth

Station Depth Elevation
Virginia Lakes Ridge 0 in 9200 ft
Leavitt Lake 0 in 9400 ft
Sonora Pass 0 in 8800 ft
Leavitt Meadows 1 in 7200 ft
Summit Meadow 1 in 9122 ft

Earthquake Activity

City Distance Mag. Time & Date
Solvang, California 134 miles 2.6 5:35 PM PDT
2014-10-22
Kettleman City, California 32 miles 2.5 9:08 AM PDT
2014-10-22
Mammoth Lakes, California 92 miles 3.0 11:10 PM PDT
2014-10-20
Minimum magnitude displayed is 2.5.

Coastal Water Temperatures

Place Temperature
No Stations Reporting

Nearby Weather Stations